createdAt,value
2022-10-22T00:00:55.726Z,97076.81
2022-10-22T00:03:22.377Z,97078.72
2022-10-22T00:05:48.811Z,97088.53
2022-10-22T00:08:15.221Z,97093.66
2022-10-22T00:10:42.306Z,97090.94
2022-10-22T00:13:08.805Z,97100.41
2022-10-22T00:15:35.261Z,97101.53
2022-10-22T00:18:01.719Z,97104.50
2022-10-22T00:20:28.127Z,97110.75
2022-10-22T00:22:54.620Z,97118.06
2022-10-22T00:25:21.209Z,97111.84
2022-10-22T00:27:47.613Z,97112.63
2022-10-22T00:30:14.004Z,97107.72
2022-10-22T00:32:40.622Z,97113.97
2022-10-22T00:35:07.508Z,97111.53
2022-10-22T00:37:33.948Z,97096.91
2022-10-22T00:40:00.381Z,97102.03
2022-10-22T00:42:30.157Z,97111.25
2022-10-22T00:45:11.908Z,97111.00
2022-10-22T00:47:47.854Z,97107.72
2022-10-22T00:50:19.078Z,97097.72
2022-10-22T00:52:46.345Z,97087.97
2022-10-22T00:55:13.775Z,97073.56
2022-10-22T00:57:40.692Z,97065.44
2022-10-22T01:00:07.767Z,97064.63
2022-10-22T01:02:34.253Z,97056.75
2022-10-22T01:05:00.650Z,97035.34
2022-10-22T01:07:27.173Z,97019.84
2022-10-22T01:10:08.372Z,97017.72
2022-10-22T01:12:50.697Z,97027.50
2022-10-22T01:15:25.197Z,97042.16
2022-10-22T01:18:10.678Z,97036.75
2022-10-22T01:20:55.955Z,97035.66
2022-10-22T01:23:40.676Z,97042.44
2022-10-22T01:26:16.488Z,97063.88
2022-10-22T01:28:54.074Z,97060.84
2022-10-22T01:31:23.123Z,97048.91
2022-10-22T01:33:51.487Z,97047.59
2022-10-22T01:36:19.092Z,97064.91
2022-10-22T01:38:47.380Z,97077.38
2022-10-22T01:41:14.375Z,97091.50
2022-10-22T01:43:40.828Z,97086.34
2022-10-22T01:46:09.980Z,97082.81
2022-10-22T01:48:42.552Z,97092.88
2022-10-22T01:51:27.276Z,97105.34
2022-10-22T01:54:06.860Z,97110.50
2022-10-22T01:56:45.107Z,97105.66
2022-10-22T01:59:30.317Z,97092.88
2022-10-22T02:02:13.337Z,97101.56
2022-10-22T02:04:59.969Z,97094.50
2022-10-22T02:07:31.642Z,97096.97
2022-10-22T02:09:59.488Z,97100.78
2022-10-22T02:12:29.360Z,97095.16
2022-10-22T02:14:57.417Z,97098.66
2022-10-22T02:17:26.961Z,97104.09
2022-10-22T02:19:58.827Z,97116.03
2022-10-22T02:22:27.120Z,97113.34
2022-10-22T02:24:53.732Z,97109.00
2022-10-22T02:27:30.222Z,97110.63
2022-10-22T02:30:05.692Z,97106.84
2022-10-22T02:32:41.892Z,97087.28
2022-10-22T02:35:13.531Z,97088.66
2022-10-22T02:37:40.321Z,97083.50
2022-10-22T02:40:07.972Z,97070.75
2022-10-22T02:42:35.077Z,97057.16
2022-10-22T02:45:01.505Z,97050.66
2022-10-22T02:47:27.913Z,97053.38
2022-10-22T02:49:54.380Z,97044.66
2022-10-22T02:52:20.797Z,97043.84
2022-10-22T02:54:47.228Z,97044.94
2022-10-22T02:57:13.657Z,97051.72
2022-10-22T02:59:40.114Z,97052.53
2022-10-22T03:02:06.532Z,97070.16
2022-10-22T03:04:33.000Z,97077.78
2022-10-22T03:06:59.555Z,97076.94
2022-10-22T03:09:26.321Z,97067.16
2022-10-22T03:11:52.780Z,97065.00
2022-10-22T03:14:19.323Z,97080.22
2022-10-22T03:16:46.303Z,97078.31
2022-10-22T03:19:12.964Z,97073.69
2022-10-22T03:22:00.404Z,97077.50
2022-10-22T03:24:35.557Z,97062.31
2022-10-22T03:27:02.381Z,97065.56
2022-10-22T03:29:31.139Z,97071.00
2022-10-22T03:31:57.520Z,97061.22
2022-10-22T03:34:24.070Z,97057.16
2022-10-22T03:36:51.956Z,97054.44
2022-10-22T03:39:19.936Z,97051.72
2022-10-22T03:41:48.125Z,97044.13
2022-10-22T03:44:16.168Z,97050.91
2022-10-22T03:46:42.592Z,97049.28
2022-10-22T03:49:09.179Z,97049.56
2022-10-22T03:51:35.904Z,97055.25
2022-10-22T03:54:03.637Z,97055.25
2022-10-22T03:56:30.521Z,97076.16
2022-10-22T03:58:59.132Z,97101.13
2022-10-22T04:01:27.329Z,97081.59
2022-10-22T04:03:54.192Z,97081.88
2022-10-22T04:06:20.880Z,97078.31
2022-10-22T04:08:47.927Z,97076.44
2022-10-22T04:11:15.573Z,97080.78
2022-10-22T04:13:42.764Z,97077.53
2022-10-22T04:16:16.101Z,97083.19
2022-10-22T04:18:43.513Z,97089.72
2022-10-22T04:21:11.773Z,97086.47
2022-10-22T04:23:38.560Z,97094.88
2022-10-22T04:26:07.664Z,97096.78
2022-10-22T04:28:35.168Z,97102.19
2022-10-22T04:31:08.218Z,97093.25
2022-10-22T04:33:34.744Z,97105.19
2022-10-22T04:36:06.673Z,97111.16
2022-10-22T04:38:33.100Z,97110.06
2022-10-22T04:41:09.352Z,97105.47
2022-10-22T04:43:35.844Z,97107.91
2022-10-22T04:46:02.255Z,97104.66
2022-10-22T04:48:28.652Z,97103.59
2022-10-22T04:50:58.787Z,97092.72
2022-10-22T04:53:25.179Z,97109.53
2022-10-22T04:55:51.636Z,97112.78
2022-10-22T04:58:18.021Z,97122.28
2022-10-22T05:00:44.538Z,97112.25
2022-10-22T05:03:11.049Z,97114.97
2022-10-22T05:05:37.561Z,97126.09
2022-10-22T05:08:04.195Z,97133.72
2022-10-22T05:10:30.714Z,97138.31
2022-10-22T05:12:57.098Z,97137.78
2022-10-22T05:15:23.501Z,97142.91
2022-10-22T05:17:49.950Z,97136.38
2022-10-22T05:20:16.402Z,97133.91
2022-10-22T05:22:42.816Z,97146.16
2022-10-22T05:25:09.576Z,97148.91
2022-10-22T05:27:35.969Z,97154.59
2022-10-22T05:30:02.474Z,97145.63
2022-10-22T05:32:28.845Z,97157.63
2022-10-22T05:34:55.240Z,97160.34
2022-10-22T05:37:22.092Z,97164.94
2022-10-22T05:39:54.286Z,97167.38
2022-10-22T05:42:24.089Z,97173.91
2022-10-22T05:44:50.891Z,97173.88
2022-10-22T05:47:17.273Z,97180.06
2022-10-22T05:49:43.682Z,97190.13
2022-10-22T05:52:10.066Z,97183.00
2022-10-22T05:54:36.467Z,97188.66
2022-10-22T05:57:02.897Z,97187.84
2022-10-22T05:59:29.400Z,97194.88
2022-10-22T06:01:55.871Z,97198.44
2022-10-22T06:04:22.333Z,97204.69
2022-10-22T06:06:53.242Z,97208.44
2022-10-22T06:09:27.493Z,97213.63
2022-10-22T06:11:55.592Z,97216.38
2022-10-22T06:14:22.249Z,97225.81
2022-10-22T06:16:49.455Z,97224.44
2022-10-22T06:19:18.612Z,97220.72
2022-10-22T06:21:45.548Z,97228.84
2022-10-22T06:24:12.656Z,97220.13
2022-10-22T06:26:39.993Z,97234.66
2022-10-22T06:29:07.181Z,97239.78
2022-10-22T06:31:37.220Z,97246.03
2022-10-22T06:34:10.177Z,97250.63
2022-10-22T06:36:36.789Z,97257.44
2022-10-22T06:39:04.416Z,97256.69
2022-10-22T06:41:31.068Z,97260.81
2022-10-22T06:43:58.060Z,97255.13
2022-10-22T06:46:25.108Z,97261.63
2022-10-22T06:48:59.238Z,97268.69
2022-10-22T06:51:26.673Z,97265.72
2022-10-22T06:53:54.525Z,97275.78
2022-10-22T06:56:23.588Z,97289.84
2022-10-22T06:58:52.239Z,97281.69
2022-10-22T07:01:21.510Z,97279.81
2022-10-22T07:03:51.104Z,97281.69
2022-10-22T07:06:18.318Z,97304.81
2022-10-22T07:08:44.750Z,97311.06
2022-10-22T07:11:14.642Z,97307.03
2022-10-22T07:13:41.396Z,97313.00
2022-10-22T07:16:08.696Z,97314.94
2022-10-22T07:18:36.846Z,97311.44
2022-10-22T07:21:04.576Z,97316.31
2022-10-22T07:23:31.257Z,97320.91
2022-10-22T07:25:57.843Z,97316.31
2022-10-22T07:28:24.732Z,97321.47
2022-10-22T07:30:51.285Z,97325.53
2022-10-22T07:33:17.783Z,97334.78
2022-10-22T07:35:44.262Z,97330.72
2022-10-22T07:38:10.730Z,97335.59
2022-10-22T07:40:37.169Z,97341.31
2022-10-22T07:43:04.321Z,97345.34
2022-10-22T07:45:30.941Z,97344.84
2022-10-22T07:47:57.487Z,97344.84
2022-10-22T07:50:23.989Z,97345.16
2022-10-22T07:52:50.999Z,97338.88
2022-10-22T07:55:17.952Z,97339.44
2022-10-22T07:57:44.361Z,97338.66
2022-10-22T08:00:11.305Z,97342.44
2022-10-22T08:02:40.461Z,97340.28
2022-10-22T08:05:07.728Z,97346.28
2022-10-22T08:07:34.309Z,97347.09
2022-10-22T08:10:00.775Z,97343.00
2022-10-22T08:12:27.377Z,97345.72
2022-10-22T08:14:53.915Z,97348.19
2022-10-22T08:17:20.348Z,97352.25
2022-10-22T08:19:46.855Z,97358.53
2022-10-22T08:22:13.381Z,97350.94
2022-10-22T08:24:40.041Z,97342.50
2022-10-22T08:27:06.461Z,97355.88
2022-10-22T08:29:32.929Z,97359.41
2022-10-22T08:31:59.449Z,97352.88
2022-10-22T08:34:25.843Z,97355.59
2022-10-22T08:36:52.257Z,97354.44
2022-10-22T08:39:18.657Z,97355.81
2022-10-22T08:42:22.492Z,97359.88
2022-10-22T08:44:57.295Z,97360.13
2022-10-22T08:47:42.537Z,97360.09
2022-10-22T08:50:24.114Z,97364.72
2022-10-22T08:52:57.385Z,97367.94
2022-10-22T08:55:25.225Z,97369.31
2022-10-22T08:58:16.052Z,97369.78
2022-10-22T09:00:46.495Z,97365.66
2022-10-22T09:03:40.066Z,97366.75
2022-10-22T09:06:27.285Z,97373.47
2022-10-22T09:08:57.074Z,97374.34
2022-10-22T09:11:36.018Z,97371.81
2022-10-22T09:14:03.650Z,97376.44
2022-10-22T09:16:56.140Z,97371.78
2022-10-22T09:19:35.603Z,97373.63
2022-10-22T09:22:18.272Z,97376.91
2022-10-22T09:24:50.233Z,97375.00
2022-10-22T09:27:19.938Z,97376.63
2022-10-22T09:29:47.984Z,97381.03
2022-10-22T09:32:16.264Z,97386.19
2022-10-22T09:34:48.069Z,97391.63
2022-10-22T09:37:19.641Z,97391.25
2022-10-22T09:39:52.774Z,97395.56
2022-10-22T09:42:20.920Z,97405.03
2022-10-22T09:44:57.365Z,97401.53
2022-10-22T09:47:42.724Z,97401.44
2022-10-22T09:50:20.415Z,97413.09
2022-10-22T09:52:58.154Z,97410.88
2022-10-22T09:55:25.845Z,97414.34
2022-10-22T09:57:58.146Z,97413.44
2022-10-22T10:00:26.365Z,97421.28
2022-10-22T10:02:57.320Z,97423.75
2022-10-22T10:05:32.887Z,97423.16
2022-10-22T10:08:07.873Z,97427.75
2022-10-22T10:10:45.396Z,97433.75
2022-10-22T10:13:24.008Z,97443.69
2022-10-22T10:16:00.465Z,97436.69
2022-10-22T10:18:57.087Z,97443.16
2022-10-22T10:21:43.833Z,97443.56
2022-10-22T10:24:28.833Z,97443.50
2022-10-22T10:27:19.969Z,97450.66
2022-10-22T10:30:17.997Z,97446.19
2022-10-22T10:33:05.461Z,97445.28
2022-10-22T10:35:41.016Z,97454.22
2022-10-22T10:38:23.604Z,97454.84
2022-10-22T10:41:07.517Z,97458.22
2022-10-22T10:44:02.913Z,97458.31
2022-10-22T10:46:58.373Z,97447.75
2022-10-22T10:49:31.276Z,97451.16
2022-10-22T10:52:17.520Z,97447.16
2022-10-22T10:54:52.680Z,97450.94
2022-10-22T10:57:30.958Z,97452.19
2022-10-22T10:59:57.280Z,97455.88
2022-10-22T11:02:42.372Z,97445.69
2022-10-22T11:05:20.789Z,97444.06
2022-10-22T11:08:13.940Z,97440.28
2022-10-22T11:10:44.281Z,97438.97
2022-10-22T11:13:45.425Z,97437.75
2022-10-22T11:16:23.288Z,97439.69
2022-10-22T11:19:03.280Z,97441.03
2022-10-22T11:21:39.996Z,97443.69
2022-10-22T11:24:28.010Z,97438.00
2022-10-22T11:27:21.654Z,97438.06
2022-10-22T11:29:55.974Z,97440.66
2022-10-22T11:32:26.340Z,97439.34
2022-10-22T11:35:01.362Z,97434.50
2022-10-22T11:37:34.825Z,97440.47
2022-10-22T11:40:07.698Z,97437.16
2022-10-22T11:42:38.064Z,97435.56
2022-10-22T11:45:28.558Z,97440.28
2022-10-22T11:47:57.697Z,97432.22
2022-10-22T11:50:43.981Z,97433.31
2022-10-22T11:53:13.391Z,97433.50
2022-10-22T11:55:45.322Z,97434.66
2022-10-22T11:58:39.149Z,97431.31
2022-10-22T12:01:08.401Z,97427.09
2022-10-22T12:03:34.789Z,97425.03
2022-10-22T12:06:15.258Z,97425.38
2022-10-22T12:09:05.872Z,97433.97
2022-10-22T12:11:50.081Z,97430.81
2022-10-22T12:14:29.488Z,97432.00
2022-10-22T12:17:08.460Z,97427.06
2022-10-22T12:19:37.819Z,97428.47
2022-10-22T12:22:07.684Z,97429.47
2022-10-22T12:24:40.808Z,97425.34
2022-10-22T12:27:22.705Z,97423.00
2022-10-22T12:29:57.486Z,97415.13
2022-10-22T12:32:33.524Z,97405.03
2022-10-22T12:35:06.417Z,97409.72
2022-10-22T12:37:35.308Z,97409.59
2022-10-22T12:40:01.768Z,97408.84
2022-10-22T12:42:28.204Z,97404.84
2022-10-22T12:44:56.380Z,97402.41
2022-10-22T12:47:22.844Z,97404.84
2022-10-22T12:49:50.641Z,97410.63
2022-10-22T12:52:21.213Z,97401.41
2022-10-22T12:54:52.292Z,97407.00
2022-10-22T12:57:20.957Z,97408.47
2022-10-22T12:59:51.099Z,97405.09
2022-10-22T13:02:24.508Z,97407.94
2022-10-22T13:05:06.096Z,97409.75
2022-10-22T13:07:41.946Z,97411.16
2022-10-22T13:10:23.180Z,97405.56
2022-10-22T13:12:55.869Z,97398.59
2022-10-22T13:15:28.557Z,97401.84
2022-10-22T13:18:16.183Z,97405.03
2022-10-22T13:20:56.728Z,97396.56
2022-10-22T13:23:26.786Z,97396.78
2022-10-22T13:26:14.776Z,97395.28
2022-10-22T13:28:41.939Z,97391.09
2022-10-22T13:31:17.258Z,97388.69
2022-10-22T13:33:45.813Z,97388.47
2022-10-22T13:36:16.366Z,97392.03
2022-10-22T13:38:43.953Z,97396.41
2022-10-22T13:41:30.870Z,97393.75
2022-10-22T13:43:58.113Z,97393.34
2022-10-22T13:46:25.832Z,97387.63
2022-10-22T13:48:54.927Z,97387.38
2022-10-22T13:51:23.076Z,97381.88
2022-10-22T13:53:51.692Z,97384.88
2022-10-22T13:56:19.902Z,97390.25
2022-10-22T13:58:47.224Z,97383.69
2022-10-22T14:01:21.191Z,97385.50
2022-10-22T14:03:49.745Z,97386.09
2022-10-22T14:06:18.241Z,97385.31
2022-10-22T14:08:48.304Z,97382.56
2022-10-22T14:11:14.769Z,97387.38
2022-10-22T14:13:41.214Z,97386.25
2022-10-22T14:16:14.785Z,97380.03
2022-10-22T14:18:41.295Z,97379.94
2022-10-22T14:21:08.253Z,97371.47
2022-10-22T14:23:36.383Z,97375.50
2022-10-22T14:26:03.892Z,97379.50
2022-10-22T14:28:34.158Z,97383.13
2022-10-22T14:31:03.725Z,97381.63
2022-10-22T14:33:32.673Z,97384.00
2022-10-22T14:36:00.007Z,97378.53
2022-10-22T14:38:26.516Z,97373.19
2022-10-22T14:40:53.004Z,97384.09
2022-10-22T14:43:24.976Z,97386.69
2022-10-22T14:45:52.108Z,97390.06
2022-10-22T14:50:47.155Z,97389.25
2022-10-22T14:53:16.529Z,97384.72
2022-10-22T14:55:44.325Z,97390.22
2022-10-22T14:58:12.259Z,97389.25
2022-10-22T15:00:41.230Z,97393.75
2022-10-22T15:03:07.900Z,97390.69
2022-10-22T15:05:36.134Z,97394.84
2022-10-22T15:08:02.594Z,97393.69
2022-10-22T15:10:29.268Z,97393.94
2022-10-22T15:12:55.671Z,97401.09
2022-10-22T15:15:23.210Z,97404.63
2022-10-22T15:17:50.278Z,97406.22
2022-10-22T15:20:16.785Z,97403.59
2022-10-22T15:22:43.553Z,97405.31
2022-10-22T15:25:10.892Z,97402.78
2022-10-22T15:27:37.321Z,97399.47
2022-10-22T15:30:05.750Z,97399.66
2022-10-22T15:32:33.953Z,97392.91
2022-10-22T15:35:01.426Z,97393.88
2022-10-22T15:37:27.893Z,97398.72
2022-10-22T15:39:54.405Z,97396.47
2022-10-22T15:42:20.909Z,97392.66
2022-10-22T15:44:47.309Z,97394.72
2022-10-22T15:47:13.730Z,97393.28
2022-10-22T15:49:41.759Z,97389.22
2022-10-22T15:52:09.134Z,97400.53
2022-10-22T15:54:35.715Z,97396.50
2022-10-22T15:57:03.428Z,97410.88
2022-10-22T15:59:29.945Z,97407.97
2022-10-22T16:01:56.377Z,97412.66
2022-10-22T16:04:22.792Z,97414.06
2022-10-22T16:06:52.645Z,97413.25
2022-10-22T16:09:22.549Z,97414.63
2022-10-22T16:11:50.353Z,97415.19
2022-10-22T16:14:19.771Z,97419.00
2022-10-22T16:16:50.112Z,97415.72
2022-10-22T16:19:18.604Z,97412.97
2022-10-22T16:21:45.368Z,97417.56
2022-10-22T16:24:12.551Z,97417.50
2022-10-22T16:26:39.017Z,97411.75
2022-10-22T16:29:07.128Z,97414.44
2022-10-22T16:31:33.971Z,97411.63
2022-10-22T16:34:00.338Z,97416.47
2022-10-22T16:36:26.815Z,97416.97
2022-10-22T16:38:53.277Z,97421.50
2022-10-22T16:41:21.828Z,97422.88
2022-10-22T16:43:50.199Z,97430.19
2022-10-22T16:46:18.925Z,97431.84
2022-10-22T16:48:50.741Z,97436.19
2022-10-22T16:51:23.238Z,97436.72
2022-10-22T16:53:52.274Z,97437.28
2022-10-22T16:56:19.014Z,97431.53
2022-10-22T16:58:51.006Z,97430.72
2022-10-22T17:01:19.490Z,97440.25
2022-10-22T17:03:46.150Z,97435.59
2022-10-22T17:06:12.824Z,97439.97
2022-10-22T17:08:41.154Z,97440.03
2022-10-22T17:11:09.826Z,97434.34
2022-10-22T17:13:36.844Z,97445.44
2022-10-22T17:16:09.012Z,97436.59
2022-10-22T17:18:37.832Z,97439.84
2022-10-22T17:21:05.680Z,97442.53
2022-10-22T17:23:32.119Z,97450.38
2022-10-22T17:26:00.952Z,97452.72
2022-10-22T17:28:28.429Z,97446.38
2022-10-22T17:31:28.606Z,97448.53
2022-10-22T17:33:56.802Z,97454.63
2022-10-22T17:36:24.871Z,97453.75
2022-10-22T17:38:53.853Z,97457.97
2022-10-22T17:41:22.892Z,97458.16
2022-10-22T17:43:50.016Z,97462.88
2022-10-22T17:46:25.059Z,97469.81
2022-10-22T17:48:52.853Z,97471.75
2022-10-22T17:51:20.405Z,97469.16
2022-10-22T17:53:47.536Z,97465.97
2022-10-22T17:56:20.343Z,97474.78
2022-10-22T17:58:47.182Z,97474.53
2022-10-22T18:01:25.813Z,97468.84
2022-10-22T18:03:53.823Z,97474.31
2022-10-22T18:06:20.664Z,97467.31
2022-10-22T18:08:47.158Z,97457.53
2022-10-22T18:11:17.781Z,97462.97
2022-10-22T18:13:44.873Z,97464.59
2022-10-22T18:16:12.178Z,97459.13
2022-10-22T18:18:38.618Z,97462.34
2022-10-22T18:21:05.223Z,97465.38
2022-10-22T18:23:31.681Z,97466.81
2022-10-22T18:25:58.101Z,97461.13
2022-10-22T18:28:24.595Z,97465.44
2022-10-22T18:30:51.021Z,97466.50
2022-10-22T18:33:19.219Z,97464.97
2022-10-22T18:35:46.173Z,97458.47
2022-10-22T18:38:12.587Z,97458.66
2022-10-22T18:40:48.135Z,97458.06
2022-10-22T18:43:15.442Z,97459.97
2022-10-22T18:45:45.181Z,97459.59
2022-10-22T18:48:14.426Z,97456.59
2022-10-22T18:50:40.923Z,97459.28
2022-10-22T18:53:07.527Z,97455.97
2022-10-22T18:55:37.793Z,97452.38
2022-10-22T18:58:04.193Z,97451.25
2022-10-22T19:00:30.804Z,97452.56
2022-10-22T19:02:57.288Z,97450.06
2022-10-22T19:05:23.696Z,97452.72
2022-10-22T19:07:50.586Z,97456.25
2022-10-22T19:10:17.837Z,97448.88
2022-10-22T19:12:44.270Z,97452.13
2022-10-22T19:15:10.803Z,97452.41
2022-10-22T19:17:37.205Z,97451.84
2022-10-22T19:20:04.159Z,97458.13
2022-10-22T19:22:31.534Z,97458.19
2022-10-22T19:24:58.805Z,97461.41
2022-10-22T19:27:25.440Z,97457.63
2022-10-22T19:29:51.854Z,97465.00
2022-10-22T19:32:19.896Z,97456.38
2022-10-22T19:34:47.070Z,97452.91
2022-10-22T19:37:13.503Z,97452.63
2022-10-22T19:39:39.891Z,97459.50
2022-10-22T19:42:06.454Z,97453.75
2022-10-22T19:44:32.978Z,97448.56
2022-10-22T19:46:59.396Z,97445.41
2022-10-22T19:49:25.853Z,97448.44
2022-10-22T19:51:52.336Z,97452.25
2022-10-22T19:54:19.548Z,97452.53
2022-10-22T19:56:46.557Z,97449.03
2022-10-22T19:59:14.811Z,97446.06
2022-10-22T20:01:41.439Z,97449.31
2022-10-22T20:04:07.996Z,97451.22
2022-10-22T20:06:34.457Z,97447.91
2022-10-22T20:09:00.981Z,97457.09
2022-10-22T20:11:29.959Z,97455.78
2022-10-22T20:13:57.173Z,97460.41
2022-10-22T20:16:25.994Z,97455.00
2022-10-22T20:18:52.926Z,97457.19
2022-10-22T20:21:20.301Z,97450.38
2022-10-22T20:23:48.199Z,97453.03
2022-10-22T20:26:14.652Z,97456.34
2022-10-22T20:28:41.123Z,97458.75
2022-10-22T20:31:12.220Z,97466.66
2022-10-22T20:33:39.068Z,97466.91
2022-10-22T20:36:08.455Z,97473.97
2022-10-22T20:41:07.992Z,97477.34
2022-10-22T20:43:34.689Z,97469.78
2022-10-22T20:46:02.152Z,97471.16
2022-10-22T20:48:31.187Z,97470.34
2022-10-22T20:50:58.944Z,97467.28
2022-10-22T20:53:26.244Z,97463.44
2022-10-22T20:55:56.714Z,97466.06
2022-10-22T20:58:25.936Z,97459.41
2022-10-22T21:00:55.037Z,97452.53
2022-10-22T21:03:21.752Z,97457.63
2022-10-22T21:05:48.412Z,97448.63
2022-10-22T21:08:18.201Z,97446.56
2022-10-22T21:10:49.066Z,97451.84
2022-10-22T21:13:16.626Z,97458.31
2022-10-22T21:15:43.073Z,97445.88
2022-10-22T21:18:09.570Z,97443.50
2022-10-22T21:20:38.212Z,97443.66
2022-10-22T21:23:04.618Z,97446.31
2022-10-22T21:25:31.364Z,97452.22
2022-10-22T21:27:57.807Z,97458.78
2022-10-22T21:30:24.329Z,97455.00
2022-10-22T21:32:51.669Z,97469.63
2022-10-22T21:35:18.133Z,97458.09
2022-10-22T21:37:44.695Z,97453.59
2022-10-22T21:40:11.834Z,97450.59
2022-10-22T21:42:38.297Z,97451.47
2022-10-22T21:45:10.484Z,97450.91
2022-10-22T21:47:39.889Z,97454.78
2022-10-22T21:50:06.729Z,97445.63
2022-10-22T21:52:33.093Z,97446.75
2022-10-22T21:54:59.489Z,97453.25
2022-10-22T21:57:26.549Z,97453.03
2022-10-22T21:59:52.948Z,97439.72
2022-10-22T22:04:54.636Z,97444.69
2022-10-22T22:07:22.087Z,97448.00
2022-10-22T22:09:50.287Z,97456.69
2022-10-22T22:12:17.542Z,97460.78
2022-10-22T22:14:44.354Z,97466.50
2022-10-22T22:17:10.925Z,97462.66
2022-10-22T22:19:38.600Z,97461.81
2022-10-22T22:22:05.000Z,97462.06
2022-10-22T22:24:31.416Z,97465.84
2022-10-22T22:26:57.813Z,97460.91
2022-10-22T22:29:24.212Z,97468.28
2022-10-22T22:31:50.640Z,97454.78
2022-10-22T22:34:17.640Z,97451.47
2022-10-22T22:36:46.863Z,97451.69
2022-10-22T22:39:16.734Z,97453.25
2022-10-22T22:41:44.268Z,97439.69
2022-10-22T22:44:10.696Z,97441.78
2022-10-22T22:46:37.605Z,97447.66
2022-10-22T22:49:04.373Z,97439.19
2022-10-22T22:51:30.870Z,97439.06
2022-10-22T22:53:58.222Z,97438.47
2022-10-22T22:56:27.765Z,97443.56
2022-10-22T22:58:55.184Z,97437.59
2022-10-22T23:01:24.442Z,97432.16
2022-10-22T23:03:59.789Z,97424.03
2022-10-22T23:06:27.860Z,97427.75
2022-10-22T23:08:55.316Z,97423.06
2022-10-22T23:11:22.962Z,97417.84
2022-10-22T23:13:53.583Z,97420.47
2022-10-22T23:16:22.219Z,97413.91
2022-10-22T23:18:49.932Z,97410.91
2022-10-22T23:21:19.113Z,97418.38
2022-10-22T23:23:48.742Z,97421.63
2022-10-22T23:26:19.729Z,97417.78
2022-10-22T23:28:46.708Z,97426.41
2022-10-22T23:31:14.892Z,97431.50
2022-10-22T23:33:42.241Z,97428.22
2022-10-22T23:36:09.355Z,97427.13
2022-10-22T23:38:37.482Z,97427.13
2022-10-22T23:41:05.087Z,97418.47
2022-10-22T23:43:32.137Z,97415.69
2022-10-22T23:45:58.583Z,97407.56
2022-10-22T23:48:24.988Z,97414.91
2022-10-22T23:53:22.780Z,97399.81
2022-10-22T23:55:49.188Z,97395.72
2022-10-22T23:58:15.685Z,97386.41
